Jolyn — PJWG — position and weather

sailwx.info

Track history (hours):
 
Tides and Currents Weather Stations Pressure Air Temp Water Temp Dewpoint Dewpoint Depression Visibility Wind Speed Wind Dir Waves Ship Positions

Jolyn

Last reported at 2014-Sep-19 20:31 UTC. Time now 2014-Sep-21 14:05 UTC.
Position N 38°07' W 009°40'.

Length 89 m; draft 5.6 m.

Type: Cargo ship. MMSI: 306813000.

Date/timePositionNaut miles runAvg speedWind from/ knotsBaromVisibWave heightAir tempDewpointWater temp
2014-Sep-19 20:31N 38°07' W 009°40'96 8.5
2014-Sep-19 09:08N 36°39' W 008°50'6 9.7
2014-Sep-19 08:33N 36°38' W 008°43'169 8.4
2014-Sep-18 12:28N 36°02' W 005°17'215 8.2
2014-Sep-17 10:05N 37°13' W 001°04'10 9.7
2014-Sep-17 09:05N 37°19' W 000°55'6 9.7
2014-Sep-17 08:30N 37°23' W 000°50'10 9.8
2014-Sep-17 07:26N 37°30' W 000°40'910.1
2014-Sep-17 06:33N 37°36' W 000°32'1010.3
2014-Sep-17 05:32N 37°44' W 000°23'1210.1
2014-Sep-17 04:23N 37°53' W 000°14'8 9.9
2014-Sep-17 03:33N 37°59' W 000°07'110 9.6
2014-Sep-16 16:05N 39°19' E 001°30'15 9.1
2014-Sep-16 14:28N 39°27' E 001°46'51 9.8
2014-Sep-16 09:16N 39°55' E 002°42'710.0
2014-Sep-16 08:33N 39°59' E 002°49'367 9.4
2014-Sep-14 17:23N 42°56' E 009°58'1111.2
2014-Sep-14 16:27N 42°55' E 010°12'910.1
2014-Sep-14 15:33N 42°55' E 010°24'  
2014-Sep-12 11:32N 42°53' E 010°34'177 9.8
2014-Sep-11 17:27N 40°42' E 013°15'1010.1
2014-Sep-11 16:28N 40°39' E 013°27'1010.4
2014-Sep-11 15:33N 40°36' E 013°39'1010.3
2014-Sep-11 14:33N 40°32' E 013°51'1010.1
2014-Sep-11 13:33N 40°30' E 014°04'1110.9
2014-Sep-11 12:33N 40°31' E 014°19'1111.1
2014-Sep-11 11:33N 40°34' E 014°33'  
Track history (hours):
 
Tides and Currents Weather Stations Pressure Air Temp Water Temp Dewpoint Dewpoint Depression Visibility Wind Speed Wind Dir Waves Ship Positions

Jolyn

Last reported at 2014-Sep-19 20:31 UTC. Time now 2014-Sep-21 14:05 UTC.
Position N 38°07' W 009°40'.

Length 89 m; draft 5.6 m.

Type: Cargo ship. MMSI: 306813000.

Date/timePositionNaut miles runAvg speedWind from/ knotsBaromVisibWave heightAir tempDewpointWater temp
2014-Sep-19 20:31N 38°07' W 009°40'96 8.5
2014-Sep-19 09:08N 36°39' W 008°50'6 9.7
2014-Sep-19 08:33N 36°38' W 008°43'169 8.4
2014-Sep-18 12:28N 36°02' W 005°17'215 8.2
2014-Sep-17 10:05N 37°13' W 001°04'10 9.7
2014-Sep-17 09:05N 37°19' W 000°55'6 9.7
2014-Sep-17 08:30N 37°23' W 000°50'10 9.8
2014-Sep-17 07:26N 37°30' W 000°40'910.1
2014-Sep-17 06:33N 37°36' W 000°32'1010.3
2014-Sep-17 05:32N 37°44' W 000°23'1210.1
2014-Sep-17 04:23N 37°53' W 000°14'8 9.9
2014-Sep-17 03:33N 37°59' W 000°07'110 9.6
2014-Sep-16 16:05N 39°19' E 001°30'15 9.1
2014-Sep-16 14:28N 39°27' E 001°46'51 9.8
2014-Sep-16 09:16N 39°55' E 002°42'710.0
2014-Sep-16 08:33N 39°59' E 002°49'367 9.4
2014-Sep-14 17:23N 42°56' E 009°58'1111.2
2014-Sep-14 16:27N 42°55' E 010°12'910.1
2014-Sep-14 15:33N 42°55' E 010°24'  
2014-Sep-12 11:32N 42°53' E 010°34'177 9.8
2014-Sep-11 17:27N 40°42' E 013°15'1010.1
2014-Sep-11 16:28N 40°39' E 013°27'1010.4
2014-Sep-11 15:33N 40°36' E 013°39'1010.3
2014-Sep-11 14:33N 40°32' E 013°51'1010.1
2014-Sep-11 13:33N 40°30' E 014°04'1110.9
2014-Sep-11 12:33N 40°31' E 014°19'1111.1
2014-Sep-11 11:33N 40°34' E 014°33'  

Dump ship's entire track history